Time;durP1;ratioP1;P1;durP2;ratioP2;P2;SDS_P1;SDS_P2;PMS_P1;PMS_P2;Temp;Humidity;BMP_temperature;BMP_pressure;BME280_temperature;BME280_humidity;BME280_pressure;Samples;Min_cycle;Max_cycle;Signal;HPM_P1;HPM_P2
2023/08/30 00:00:47;;;;;;;3.67;0.90;;;18.30;99.90;;;;;;4969336;28;20053;-74
2023/08/30 00:03:13;;;;;;;0.65;0.65;;;18.40;99.90;;;;;;4969802;28;20039;-74
2023/08/30 00:05:40;;;;;;;1.63;0.90;;;18.30;99.90;;;;;;4964451;28;20075;-73
2023/08/30 00:08:06;;;;;;;1.30;1.05;;;18.20;99.90;;;;;;4964441;28;20103;-73
2023/08/30 00:10:32;;;;;;;2.47;1.15;;;18.10;99.90;;;;;;4971448;28;20476;-73
2023/08/30 00:12:57;;;;;;;2.72;0.70;;;18.10;99.90;;;;;;4963348;28;20074;-73
2023/08/30 00:15:23;;;;;;;3.35;0.95;;;18.10;99.90;;;;;;4966264;28;20046;-74
2023/08/30 00:17:51;;;;;;;0.70;0.70;;;18.10;99.90;;;;;;4964715;28;20130;-74
2023/08/30 00:20:17;;;;;;;2.55;0.65;;;18.10;99.90;;;;;;4953911;28;20121;-72
2023/08/30 00:22:43;;;;;;;4.95;0.90;;;18.20;99.90;;;;;;4971616;28;20026;-81
2023/08/30 00:25:09;;;;;;;0.93;0.63;;;18.20;99.90;;;;;;4963207;28;20026;-81
2023/08/30 00:27:34;;;;;;;0.68;0.50;;;18.30;99.90;;;;;;4975591;28;20031;-79
2023/08/30 00:30:00;;;;;;;1.48;0.63;;;18.30;99.90;;;;;;4970076;28;20931;-80
2023/08/30 00:32:26;;;;;;;4.57;0.60;;;18.30;99.90;;;;;;4972206;28;20483;-80
2023/08/30 00:34:51;;;;;;;2.42;1.00;;;18.30;99.90;;;;;;4969864;28;20049;-80
2023/08/30 00:37:17;;;;;;;3.25;0.90;;;18.30;99.90;;;;;;4969361;28;20105;-80
2023/08/30 00:39:43;;;;;;;4.47;0.70;;;18.20;99.90;;;;;;4966127;28;20566;-78
2023/08/30 00:42:09;;;;;;;3.60;0.90;;;18.20;99.90;;;;;;4966860;28;21097;-72
2023/08/30 00:44:35;;;;;;;0.90;0.80;;;18.10;99.90;;;;;;4968997;28;20113;-72
2023/08/30 00:47:02;;;;;;;3.90;0.68;;;18.00;99.90;;;;;;4966242;28;20796;-72
2023/08/30 00:49:29;;;;;;;2.85;0.90;;;18.00;99.90;;;;;;4965687;28;20031;-73
2023/08/30 00:51:56;;;;;;;2.47;0.73;;;18.00;99.90;;;;;;4968025;28;20026;-73
2023/08/30 00:54:22;;;;;;;3.25;0.68;;;18.00;99.90;;;;;;4965831;28;20018;-73
2023/08/30 00:56:47;;;;;;;7.55;1.35;;;18.00;99.90;;;;;;4967513;28;20045;-73
2023/08/30 00:59:14;;;;;;;4.63;1.25;;;18.00;99.90;;;;;;4968663;28;20039;-73
2023/08/30 01:01:41;;;;;;;2.03;1.60;;;17.90;99.90;;;;;;4968939;28;20676;-73
2023/08/30 01:04:07;;;;;;;4.03;1.52;;;17.90;99.90;;;;;;4968221;28;20034;-73
2023/08/30 01:06:35;;;;;;;3.00;2.10;;;18.00;99.90;;;;;;4965897;28;20557;-73
2023/08/30 01:09:03;;;;;;;3.20;2.53;;;18.00;99.90;;;;;;4967559;28;20046;-73
2023/08/30 01:12:01;;;;;;;4.45;2.50;;;18.00;99.90;;;;;;4969906;28;20597;-73
2023/08/30 01:14:39;;;;;;;5.78;2.85;;;18.00;99.90;;;;;;4971424;28;20522;-73
2023/08/30 01:17:07;;;;;;;2.65;2.45;;;18.00;99.90;;;;;;4971526;28;20034;-78
2023/08/30 01:19:45;;;;;;;3.45;3.15;;;18.00;99.90;;;;;;4970797;28;20115;-78
2023/08/30 01:22:36;;;;;;;3.53;3.22;;;18.00;99.90;;;;;;4968819;28;20070;-78
2023/08/30 01:25:23;;;;;;;3.58;3.08;;;17.90;99.90;;;;;;4969011;28;20498;-78
2023/08/30 01:27:50;;;;;;;3.47;2.88;;;17.90;99.90;;;;;;4971357;28;20113;-78
2023/08/30 01:30:17;;;;;;;3.13;2.83;;;17.90;99.90;;;;;;4967939;28;20500;-76
2023/08/30 01:32:43;;;;;;;4.55;3.20;;;17.80;99.90;;;;;;4975334;28;20054;-78
2023/08/30 01:35:10;;;;;;;6.30;3.42;;;17.70;99.90;;;;;;4968543;28;20120;-78
2023/08/30 01:37:37;;;;;;;5.07;4.07;;;17.60;99.90;;;;;;4971754;28;20138;-78
2023/08/30 01:40:05;;;;;;;5.68;4.22;;;17.70;99.90;;;;;;4968694;28;20149;-79
2023/08/30 01:42:31;;;;;;;6.30;5.68;;;17.60;99.90;;;;;;4972869;28;20022;-78
2023/08/30 01:45:00;;;;;;;6.55;5.47;;;17.60;99.90;;;;;;4971005;28;20498;-78
2023/08/30 01:47:28;;;;;;;6.82;6.15;;;17.60;99.90;;;;;;4969200;28;20030;-76
2023/08/30 01:49:55;;;;;;;6.25;5.75;;;17.50;99.90;;;;;;4973639;28;20037;-77
2023/08/30 01:52:22;;;;;;;7.68;5.88;;;17.50;99.90;;;;;;4973587;28;20578;-78
2023/08/30 01:54:48;;;;;;;6.93;6.22;;;17.50;99.90;;;;;;4964698;28;20124;-77
2023/08/30 01:57:14;;;;;;;6.70;5.63;;;17.50;99.90;;;;;;4969314;28;20053;-78
2023/08/30 01:59:39;;;;;;;6.82;6.18;;;17.60;99.90;;;;;;4968870;28;20027;-77
2023/08/30 02:02:05;;;;;;;6.63;5.32;;;17.70;99.90;;;;;;4970925;28;20128;-77
2023/08/30 02:04:32;;;;;;;6.07;4.70;;;17.70;99.90;;;;;;4969882;28;20463;-77
2023/08/30 02:07:03;;;;;;;5.80;5.07;;;17.80;99.90;;;;;;4970969;28;20096;-77
2023/08/30 02:09:37;;;;;;;5.60;4.43;;;17.80;99.90;;;;;;4972488;28;20035;-76
2023/08/30 02:12:07;;;;;;;5.15;4.20;;;17.80;99.90;;;;;;4968173;28;20031;-78
2023/08/30 02:14:35;;;;;;;5.50;4.40;;;17.70;99.90;;;;;;4971931;28;20542;-78
2023/08/30 02:17:01;;;;;;;8.52;4.55;;;17.70;99.90;;;;;;4974437;28;20080;-78
2023/08/30 02:19:27;;;;;;;5.15;4.10;;;17.80;99.90;;;;;;4973349;28;20119;-79
2023/08/30 02:21:52;;;;;;;4.38;3.97;;;17.80;99.90;;;;;;4974111;28;20628;-78
2023/08/30 02:24:18;;;;;;;3.80;3.42;;;17.80;99.90;;;;;;4972468;28;20451;-78
2023/08/30 02:26:44;;;;;;;4.30;3.70;;;17.80;99.90;;;;;;4966524;28;20033;-78
2023/08/30 02:29:09;;;;;;;3.60;3.30;;;17.70;99.90;;;;;;4975667;28;20030;-78
2023/08/30 02:31:35;;;;;;;3.92;3.25;;;17.70;99.90;;;;;;4970406;28;20034;-78
2023/08/30 02:34:02;;;;;;;5.15;3.83;;;17.70;99.90;;;;;;4972371;28;20060;-77
2023/08/30 02:36:27;;;;;;;4.88;3.60;;;17.70;99.90;;;;;;4967735;28;20054;-77
2023/08/30 02:38:53;;;;;;;4.43;3.60;;;17.70;99.90;;;;;;4970997;28;20034;-77
2023/08/30 02:41:19;;;;;;;4.63;3.28;;;17.70;99.90;;;;;;4971252;28;20018;-78
2023/08/30 02:43:44;;;;;;;5.03;3.60;;;17.60;99.90;;;;;;4968641;28;20092;-79
2023/08/30 02:46:10;;;;;;;4.35;3.42;;;17.70;99.90;;;;;;4972690;28;20026;-78
2023/08/30 02:48:35;;;;;;;4.10;3.20;;;17.70;99.90;;;;;;4969301;28;20045;-78
2023/08/30 02:51:01;;;;;;;3.17;2.47;;;17.70;99.90;;;;;;4969055;28;20022;-73
2023/08/30 02:53:27;;;;;;;3.58;3.00;;;17.60;99.90;;;;;;4967363;28;20026;-73
2023/08/30 02:55:55;;;;;;;4.53;2.97;;;17.60;99.90;;;;;;4970576;28;20117;-73
2023/08/30 02:58:21;;;;;;;5.25;3.33;;;17.70;99.90;;;;;;4969351;28;20038;-73
2023/08/30 03:00:46;;;;;;;2.85;2.65;;;17.70;99.90;;;;;;4967117;28;20026;-73
2023/08/30 03:03:12;;;;;;;3.20;2.88;;;17.80;99.90;;;;;;4973300;28;20042;-73
2023/08/30 03:05:38;;;;;;;4.57;2.78;;;17.80;99.90;;;;;;4969145;28;20041;-73
2023/08/30 03:08:04;;;;;;;4.53;2.95;;;17.80;99.90;;;;;;4971420;28;20092;-77
2023/08/30 03:10:29;;;;;;;2.40;2.13;;;17.80;99.90;;;;;;4968033;28;20070;-77
2023/08/30 03:12:55;;;;;;;3.40;2.40;;;17.80;99.90;;;;;;4970558;28;20136;-78
2023/08/30 03:15:20;;;;;;;2.30;2.10;;;17.90;99.90;;;;;;4971381;28;20049;-77
2023/08/30 03:17:46;;;;;;;4.63;2.10;;;17.80;99.90;;;;;;4972499;28;20038;-76
2023/08/30 03:20:12;;;;;;;2.70;2.15;;;17.70;99.90;;;;;;4971651;28;20031;-76
2023/08/30 03:22:37;;;;;;;2.33;2.00;;;17.70;99.90;;;;;;4970813;28;20050;-76
2023/08/30 03:25:03;;;;;;;4.07;1.75;;;17.60;99.90;;;;;;4968836;28;20649;-76
2023/08/30 03:27:29;;;;;;;3.70;1.73;;;17.50;99.90;;;;;;4970932;28;20037;-77
2023/08/30 03:29:55;;;;;;;2.40;2.20;;;17.50;99.90;;;;;;4966416;28;20443;-77
2023/08/30 03:32:21;;;;;;;2.88;1.80;;;17.50;99.90;;;;;;4964406;28;20172;-77
2023/08/30 03:34:47;;;;;;;2.70;1.95;;;17.50;99.90;;;;;;4967838;28;20065;-77
2023/08/30 03:37:14;;;;;;;6.05;2.10;;;17.50;99.90;;;;;;4971717;28;20061;-78
2023/08/30 03:39:40;;;;;;;3.72;1.85;;;17.50;99.90;;;;;;4972066;28;20125;-77
2023/08/30 03:42:06;;;;;;;7.20;2.35;;;17.60;99.90;;;;;;4970980;28;20134;-77
2023/08/30 03:44:32;;;;;;;4.18;1.90;;;17.60;99.90;;;;;;4969573;28;20380;-78
2023/08/30 03:46:58;;;;;;;6.22;2.53;;;17.60;99.90;;;;;;4969306;28;20039;-78
2023/08/30 03:49:23;;;;;;;5.55;2.28;;;17.50;99.90;;;;;;4965610;28;20042;-77
2023/08/30 03:51:49;;;;;;;3.42;2.38;;;17.60;99.90;;;;;;4967540;28;20567;-77
2023/08/30 03:54:16;;;;;;;3.30;3.00;;;17.50;99.90;;;;;;4972727;28;20038;-78
2023/08/30 03:56:43;;;;;;;2.83;2.58;;;17.60;99.90;;;;;;4977005;28;20042;-78
2023/08/30 03:59:09;;;;;;;3.38;3.08;;;17.60;99.90;;;;;;4973853;28;20026;-77
2023/08/30 04:01:35;;;;;;;5.25;3.05;;;17.60;99.90;;;;;;4973547;28;20080;-77
2023/08/30 04:04:01;;;;;;;3.92;2.97;;;17.60;99.90;;;;;;4973704;28;20039;-73
2023/08/30 04:06:26;;;;;;;3.85;3.42;;;17.70;99.90;;;;;;4964777;28;20034;-73
2023/08/30 04:08:52;;;;;;;4.10;3.58;;;17.70;99.90;;;;;;4976403;28;20178;-73
2023/08/30 04:11:17;;;;;;;4.78;3.22;;;17.80;99.90;;;;;;4973177;28;20034;-73
2023/08/30 04:13:43;;;;;;;6.50;2.78;;;17.70;99.90;;;;;;4971167;28;20035;-73
2023/08/30 04:16:09;;;;;;;8.82;3.55;;;17.70;99.90;;;;;;4970555;28;20042;-73
2023/08/30 04:18:34;;;;;;;5.70;3.20;;;17.70;99.90;;;;;;4975724;28;20042;-74
2023/08/30 04:21:02;;;;;;;5.90;3.58;;;17.70;99.90;;;;;;4971000;28;20034;-74
2023/08/30 04:23:28;;;;;;;11.48;3.92;;;17.70;99.90;;;;;;4972574;28;20026;-73
2023/08/30 04:25:54;;;;;;;5.53;3.35;;;17.80;99.90;;;;;;4971347;28;20030;-73
2023/08/30 04:28:20;;;;;;;6.63;4.05;;;17.80;99.90;;;;;;4973097;28;20035;-73
2023/08/30 04:30:45;;;;;;;37.60;5.78;;;17.90;99.90;;;;;;4970945;28;20046;-73
2023/08/30 04:33:11;;;;;;;5.75;4.10;;;17.90;99.90;;;;;;4971722;28;20187;-73
2023/08/30 04:35:38;;;;;;;7.95;4.55;;;18.00;99.90;;;;;;4966641;28;20049;-73
2023/08/30 04:38:04;;;;;;;9.65;5.38;;;18.10;99.90;;;;;;4976448;28;20070;-73
2023/08/30 04:40:30;;;;;;;9.35;4.18;;;18.10;99.90;;;;;;4974234;28;20022;-78
2023/08/30 04:42:56;;;;;;;5.40;4.88;;;18.10;99.90;;;;;;4975502;28;20038;-78
2023/08/30 04:45:22;;;;;;;6.95;5.18;;;18.20;99.90;;;;;;4974160;28;20487;-78
2023/08/30 04:47:47;;;;;;;5.85;5.25;;;18.10;99.90;;;;;;4973288;28;20561;-77
2023/08/30 04:50:13;;;;;;;20.35;6.63;;;18.10;99.90;;;;;;4972530;28;20453;-77
2023/08/30 04:52:39;;;;;;;11.00;4.97;;;18.20;99.90;;;;;;4972926;28;20480;-81
2023/08/30 04:55:05;;;;;;;19.70;6.05;;;18.20;99.90;;;;;;4973207;28;20563;-80
2023/08/30 04:57:31;;;;;;;6.90;4.93;;;18.30;99.90;;;;;;4972585;28;20064;-79
2023/08/30 04:59:57;;;;;;;10.70;5.65;;;18.40;99.90;;;;;;4971725;28;20665;-73
2023/08/30 05:02:23;;;;;;;6.72;4.68;;;18.30;99.90;;;;;;4974710;28;20065;-73
2023/08/30 05:04:48;;;;;;;8.45;5.43;;;18.20;99.90;;;;;;4970825;28;21272;-73
2023/08/30 05:07:14;;;;;;;12.75;5.75;;;18.20;99.90;;;;;;4970672;28;20523;-73
2023/08/30 05:09:40;;;;;;;7.13;5.18;;;18.10;99.90;;;;;;4972914;28;20026;-74
2023/08/30 05:12:07;;;;;;;9.93;5.70;;;18.10;99.90;;;;;;4966701;28;20066;-73
2023/08/30 05:14:32;;;;;;;5.22;4.68;;;18.10;99.90;;;;;;4970521;28;20086;-73
2023/08/30 05:16:58;;;;;;;5.72;4.97;;;18.30;99.90;;;;;;4972561;28;20526;-80
2023/08/30 05:19:23;;;;;;;6.35;5.32;;;18.30;99.90;;;;;;4974181;28;20492;-78
2023/08/30 05:21:54;;;;;;;6.47;5.50;;;18.40;99.90;;;;;;4970327;28;20034;-77
2023/08/30 05:24:21;;;;;;;6.10;5.50;;;18.40;99.90;;;;;;4968931;28;20023;-82
2023/08/30 05:26:46;;;;;;;5.60;5.10;;;18.40;99.90;;;;;;4965829;28;20034;-80
2023/08/30 05:29:13;;;;;;;6.40;5.65;;;18.50;99.90;;;;;;4963673;28;20069;-80
2023/08/30 05:31:40;;;;;;;6.40;5.00;;;18.50;99.90;;;;;;4963646;28;20026;-80
2023/08/30 05:34:05;;;;;;;6.00;5.43;;;18.60;99.90;;;;;;4965821;28;20817;-77
2023/08/30 05:36:31;;;;;;;5.53;5.05;;;18.60;99.90;;;;;;4965027;28;20047;-77
2023/08/30 05:38:56;;;;;;;6.05;4.57;;;18.70;99.90;;;;;;4962129;28;20535;-78
2023/08/30 05:41:22;;;;;;;5.38;4.00;;;18.70;99.90;;;;;;4963477;28;20034;-77
2023/08/30 05:43:48;;;;;;;5.65;4.32;;;18.70;99.90;;;;;;4959161;28;20028;-77
2023/08/30 05:46:15;;;;;;;4.75;3.75;;;18.70;99.90;;;;;;4953467;28;20043;-78
2023/08/30 05:48:41;;;;;;;6.30;4.57;;;18.70;99.90;;;;;;4968839;28;20030;-78
2023/08/30 05:51:07;;;;;;;4.70;3.85;;;18.70;99.90;;;;;;4971433;28;20033;-79
2023/08/30 05:53:33;;;;;;;5.65;4.40;;;18.80;99.90;;;;;;4974304;28;20085;-78
2023/08/30 05:55:58;;;;;;;6.88;3.97;;;18.80;99.90;;;;;;4973485;28;20030;-75
2023/08/30 05:58:24;;;;;;;5.00;4.10;;;18.80;99.90;;;;;;4974350;28;20052;-75
2023/08/30 06:00:49;;;;;;;8.93;4.50;;;18.70;99.90;;;;;;4975312;28;20026;-75
2023/08/30 06:03:15;;;;;;;6.18;4.53;;;18.70;99.90;;;;;;4967617;28;20034;-74
2023/08/30 06:05:42;;;;;;;10.45;5.15;;;18.70;99.90;;;;;;4972630;28;20023;-74
2023/08/30 06:08:08;;;;;;;6.28;4.45;;;18.70;99.90;;;;;;4972612;28;20042;-75
2023/08/30 06:10:36;;;;;;;5.93;4.10;;;18.70;99.90;;;;;;4975088;28;20037;-75
2023/08/30 06:13:02;;;;;;;4.90;4.45;;;18.80;99.90;;;;;;4973121;28;20030;-74
2023/08/30 06:15:28;;;;;;;4.75;4.20;;;18.90;99.90;;;;;;4972645;28;20023;-75
2023/08/30 06:17:54;;;;;;;4.82;4.43;;;18.80;99.90;;;;;;4972671;28;20054;-74
2023/08/30 06:20:19;;;;;;;7.75;4.93;;;18.80;99.90;;;;;;4965705;28;21390;-74
2023/08/30 06:22:45;;;;;;;7.03;4.85;;;18.80;99.90;;;;;;4969983;28;20038;-74
2023/08/30 06:25:10;;;;;;;4.70;4.30;;;18.80;99.90;;;;;;4976308;28;20027;-75
2023/08/30 06:27:45;;;;;;;5.25;4.78;;;18.80;99.90;;;;;;4968235;28;20041;-75
2023/08/30 06:30:11;;;;;;;5.68;5.10;;;18.70;99.90;;;;;;4972428;28;20027;-74
2023/08/30 06:32:37;;;;;;;8.43;4.22;;;18.80;99.90;;;;;;4966217;28;20034;-74
2023/08/30 06:35:03;;;;;;;9.60;4.22;;;18.90;99.90;;;;;;4974214;28;20764;-74
2023/08/30 06:37:29;;;;;;;4.88;4.13;;;19.00;99.90;;;;;;4968421;28;20072;-74
2023/08/30 06:39:55;;;;;;;4.55;4.15;;;19.10;99.90;;;;;;4971053;28;20030;-75
2023/08/30 06:42:20;;;;;;;4.85;4.00;;;19.10;99.90;;;;;;4971756;28;20034;-75
2023/08/30 06:44:46;;;;;;;4.85;4.35;;;19.10;99.90;;;;;;4973138;28;20031;-74
2023/08/30 06:47:12;;;;;;;5.97;4.05;;;19.10;99.90;;;;;;4974283;28;20479;-75
2023/08/30 06:49:37;;;;;;;5.85;3.78;;;19.20;99.90;;;;;;4973479;28;20424;-74
2023/08/30 06:52:04;;;;;;;4.28;3.88;;;19.20;99.90;;;;;;4971663;28;20099;-74
2023/08/30 06:54:33;;;;;;;4.03;3.63;;;19.20;99.90;;;;;;4965058;28;20597;-74
2023/08/30 06:57:03;;;;;;;4.15;3.70;;;19.30;99.90;;;;;;4975392;28;20034;-74
2023/08/30 06:59:28;;;;;;;4.32;3.85;;;19.30;99.90;;;;;;4975623;28;20062;-75
2023/08/30 07:01:54;;;;;;;4.70;4.22;;;19.40;99.90;;;;;;4973201;28;20058;-74
2023/08/30 07:04:20;;;;;;;4.15;3.75;;;19.40;99.90;;;;;;4969069;28;20034;-75
2023/08/30 07:06:46;;;;;;;5.07;3.60;;;19.50;99.90;;;;;;4973459;28;20046;-80
2023/08/30 07:09:11;;;;;;;4.78;4.10;;;19.60;99.90;;;;;;4974267;28;20519;-80
2023/08/30 07:11:44;;;;;;;3.72;3.42;;;19.70;99.90;;;;;;4970646;28;20450;-79
2023/08/30 07:14:10;;;;;;;4.97;4.00;;;19.70;99.90;;;;;;4974406;28;20026;-79
2023/08/30 07:16:36;;;;;;;5.03;4.15;;;19.70;99.90;;;;;;4970481;28;20085;-79
2023/08/30 07:19:02;;;;;;;4.40;3.95;;;19.70;99.90;;;;;;4970073;28;20042;-79
2023/08/30 07:21:28;;;;;;;4.68;4.20;;;19.70;99.90;;;;;;4975621;28;20102;-79
2023/08/30 07:23:53;;;;;;;4.32;3.35;;;19.70;99.90;;;;;;4974512;28;20488;-79
2023/08/30 07:26:19;;;;;;;4.20;3.72;;;19.80;99.90;;;;;;4969811;28;20471;-80
2023/08/30 07:28:45;;;;;;;4.28;3.88;;;19.80;99.90;;;;;;4975444;28;20125;-80
2023/08/30 07:31:15;;;;;;;4.65;4.25;;;19.80;99.90;;;;;;4973676;28;20030;-80
2023/08/30 07:33:40;;;;;;;8.82;4.20;;;19.80;99.90;;;;;;4963720;28;20122;-79
2023/08/30 07:36:08;;;;;;;8.32;4.45;;;19.80;99.90;;;;;;4966459;28;20710;-80
2023/08/30 07:38:35;;;;;;;4.55;4.13;;;19.90;99.90;;;;;;4974299;28;20112;-79
2023/08/30 07:41:01;;;;;;;4.78;4.38;;;20.00;99.90;;;;;;4971700;28;20107;-80
2023/08/30 07:43:27;;;;;;;4.97;4.35;;;20.10;99.90;;;;;;4967691;28;20396;-80
2023/08/30 07:45:53;;;;;;;6.00;5.32;;;20.20;99.90;;;;;;4974586;28;20027;-81
2023/08/30 07:48:18;;;;;;;7.05;6.38;;;20.20;99.90;;;;;;4973586;28;20038;-80
2023/08/30 07:50:44;;;;;;;6.40;5.80;;;20.10;99.90;;;;;;4977046;28;20030;-80
2023/08/30 07:53:10;;;;;;;6.15;5.55;;;20.20;99.90;;;;;;4968454;28;20489;-79
2023/08/30 07:55:36;;;;;;;7.80;6.30;;;20.20;99.90;;;;;;4964847;28;21061;-80
2023/08/30 07:58:03;;;;;;;6.55;5.80;;;20.20;99.90;;;;;;4971746;28;20034;-80
2023/08/30 08:00:32;;;;;;;6.18;5.57;;;20.30;99.90;;;;;;4974012;28;20058;-80
2023/08/30 08:02:57;;;;;;;6.03;5.43;;;20.30;99.90;;;;;;4964190;28;20033;-75
2023/08/30 08:05:23;;;;;;;6.03;5.47;;;20.30;99.90;;;;;;4971000;28;20035;-75
2023/08/30 08:07:52;;;;;;;7.53;5.70;;;20.30;99.90;;;;;;4974047;28;20392;-75
2023/08/30 08:10:18;;;;;;;5.15;4.65;;;20.30;99.90;;;;;;4973901;28;20019;-75
2023/08/30 08:12:44;;;;;;;7.20;4.70;;;20.50;99.90;;;;;;4975140;28;20035;-75
2023/08/30 08:15:10;;;;;;;5.47;4.97;;;20.60;99.90;;;;;;4972667;28;20102;-75
2023/08/30 08:17:35;;;;;;;5.50;4.95;;;20.60;99.90;;;;;;4975403;28;20042;-75
2023/08/30 08:20:02;;;;;;;5.72;5.18;;;20.60;99.90;;;;;;4968550;28;20054;-76
2023/08/30 08:22:28;;;;;;;6.45;5.22;;;20.60;99.90;;;;;;4973879;28;20085;-76
2023/08/30 08:24:56;;;;;;;14.45;5.57;;;20.70;99.90;;;;;;4972832;28;20064;-75
2023/08/30 08:27:22;;;;;;;6.63;6.03;;;20.80;99.90;;;;;;4968017;28;20057;-75
2023/08/30 08:29:47;;;;;;;6.40;5.80;;;20.80;99.90;;;;;;4971650;28;20507;-77
2023/08/30 08:32:13;;;;;;;20.73;6.10;;;20.80;99.90;;;;;;4972020;28;20073;-75
2023/08/30 08:34:38;;;;;;;6.82;5.60;;;20.90;99.90;;;;;;4971135;28;20035;-77
2023/08/30 08:37:06;;;;;;;6.25;5.65;;;20.90;99.90;;;;;;4972295;28;20054;-77
2023/08/30 08:39:34;;;;;;;6.38;5.78;;;21.00;99.90;;;;;;4977084;28;20390;-76
2023/08/30 08:42:00;;;;;;;7.07;5.50;;;21.00;99.90;;;;;;4981042;28;20041;-78
2023/08/30 08:44:29;;;;;;;8.63;5.57;;;21.00;99.90;;;;;;4973241;28;20026;-79
2023/08/30 08:46:55;;;;;;;8.43;6.63;;;20.90;99.90;;;;;;4974869;28;20030;-79
2023/08/30 08:49:21;;;;;;;7.07;5.35;;;20.90;99.90;;;;;;4977385;28;20034;-78
2023/08/30 08:51:46;;;;;;;5.95;5.35;;;20.90;99.90;;;;;;4976202;28;20035;-78
2023/08/30 08:54:13;;;;;;;8.48;6.10;;;20.80;99.90;;;;;;4977752;28;20403;-77
2023/08/30 08:56:39;;;;;;;6.97;5.65;;;20.80;99.90;;;;;;4976410;28;20553;-78
2023/08/30 08:59:07;;;;;;;6.38;5.78;;;20.80;99.90;;;;;;4978259;28;20026;-77
2023/08/30 09:01:35;;;;;;;5.80;5.30;;;20.90;99.90;;;;;;4969598;28;20026;-78
2023/08/30 09:04:09;;;;;;;5.65;5.07;;;20.90;99.90;;;;;;4974776;28;20033;-78
2023/08/30 09:06:36;;;;;;;6.47;5.90;;;20.90;99.90;;;;;;4973141;28;20148;-78
2023/08/30 09:09:06;;;;;;;5.90;5.28;;;20.90;99.90;;;;;;4972773;28;20042;-78
2023/08/30 09:11:32;;;;;;;5.40;4.90;;;20.90;99.90;;;;;;4974831;28;20778;-78
2023/08/30 09:13:58;;;;;;;6.30;5.75;;;20.90;99.90;;;;;;4978842;28;20049;-77
2023/08/30 09:16:23;;;;;;;7.75;5.05;;;20.90;99.90;;;;;;4970301;28;20027;-77
2023/08/30 09:19:00;;;;;;;5.75;5.25;;;20.80;99.90;;;;;;4973405;28;20041;-78
2023/08/30 09:21:26;;;;;;;5.40;4.90;;;20.90;99.90;;;;;;4974693;28;20633;-77
2023/08/30 09:24:03;;;;;;;5.90;4.60;;;21.00;99.90;;;;;;4974514;28;20030;-77
2023/08/30 09:26:31;;;;;;;5.93;4.43;;;21.10;99.90;;;;;;4972742;28;20080;-77
2023/08/30 09:29:04;;;;;;;5.43;4.93;;;21.10;99.90;;;;;;4975385;28;20035;-77
2023/08/30 09:31:37;;;;;;;5.03;4.53;;;21.10;99.90;;;;;;4976037;28;20158;-77
2023/08/30 09:34:03;;;;;;;5.28;4.78;;;21.10;99.90;;;;;;4976887;28;20583;-76
2023/08/30 09:36:35;;;;;;;5.63;4.72;;;21.00;99.90;;;;;;4977453;28;20509;-77
2023/08/30 09:39:13;;;;;;;5.50;5.00;;;20.90;99.90;;;;;;4981896;28;20169;-78
2023/08/30 09:42:05;;;;;;;5.68;4.97;;;20.90;99.90;;;;;;4969333;28;20122;-77
2023/08/30 09:44:31;;;;;;;5.40;4.90;;;20.90;99.90;;;;;;4971113;28;20151;-76
2023/08/30 09:46:56;;;;;;;5.93;4.88;;;21.00;99.90;;;;;;4972664;28;20040;-77
2023/08/30 09:49:26;;;;;;;5.47;4.90;;;21.00;99.90;;;;;;4973518;28;20039;-77
2023/08/30 09:51:53;;;;;;;5.10;4.60;;;21.10;99.90;;;;;;4966875;28;20487;-77
2023/08/30 09:54:21;;;;;;;5.22;4.80;;;21.30;99.90;;;;;;4975780;28;20503;-76
2023/08/30 09:56:47;;;;;;;6.68;4.68;;;21.30;99.90;;;;;;4973689;28;20034;-77
2023/08/30 09:59:15;;;;;;;5.47;4.97;;;21.30;99.90;;;;;;4970848;28;20121;-75
2023/08/30 10:01:43;;;;;;;4.97;4.55;;;21.20;99.90;;;;;;4974099;28;20035;-76
2023/08/30 10:04:09;;;;;;;4.82;4.32;;;21.20;99.90;;;;;;4972192;28;20546;-76
2023/08/30 10:06:36;;;;;;;6.30;4.70;;;21.30;99.90;;;;;;4972708;28;20092;-76
2023/08/30 10:09:05;;;;;;;5.03;4.15;;;21.30;99.90;;;;;;4974034;28;20705;-76
2023/08/30 10:11:35;;;;;;;4.70;4.20;;;21.40;99.90;;;;;;4978003;28;20030;-76
2023/08/30 10:14:03;;;;;;;4.13;3.80;;;21.40;99.90;;;;;;4976564;28;20053;-76
2023/08/30 10:16:43;;;;;;;4.38;3.97;;;21.50;99.90;;;;;;4972968;28;20089;-75
2023/08/30 10:19:21;;;;;;;4.15;3.75;;;21.60;99.90;;;;;;4969220;28;20038;-76
2023/08/30 10:22:04;;;;;;;4.65;4.22;;;21.60;99.90;;;;;;4973615;28;20054;-76
2023/08/30 10:24:36;;;;;;;6.10;5.00;;;21.60;99.90;;;;;;4971614;28;20039;-75
2023/08/30 10:27:04;;;;;;;5.35;4.68;;;21.50;99.90;;;;;;4967027;28;20088;-75
2023/08/30 10:29:33;;;;;;;5.13;4.47;;;21.60;99.90;;;;;;4971900;28;20069;-75
2023/08/30 10:32:06;;;;;;;6.43;4.80;;;21.60;99.90;;;;;;4969395;28;20046;-76
2023/08/30 10:34:35;;;;;;;6.15;4.43;;;21.60;99.90;;;;;;4971766;28;20042;-75
2023/08/30 10:37:05;;;;;;;6.28;4.93;;;21.60;99.90;;;;;;4973987;28;20104;-74
2023/08/30 10:39:39;;;;;;;5.70;4.50;;;21.50;99.90;;;;;;4971748;28;20038;-74
2023/08/30 10:42:10;;;;;;;5.30;4.30;;;21.30;99.90;;;;;;4972397;28;20014;-75
2023/08/30 10:44:48;;;;;;;4.72;3.88;;;21.30;99.90;;;;;;4966028;28;20141;-75
2023/08/30 10:47:31;;;;;;;5.32;3.35;;;21.40;99.90;;;;;;4970062;28;20045;-74
2023/08/30 10:50:04;;;;;;;4.47;3.60;;;21.60;99.90;;;;;;4973829;28;20117;-76
2023/08/30 10:52:30;;;;;;;4.45;4.00;;;21.70;99.90;;;;;;4973421;28;20285;-76
2023/08/30 10:55:07;;;;;;;4.22;3.80;;;21.70;99.90;;;;;;4970954;28;20539;-76
2023/08/30 10:57:33;;;;;;;4.50;3.80;;;21.80;99.90;;;;;;4969784;28;20035;-76
2023/08/30 11:00:09;;;;;;;4.47;3.58;;;22.00;99.90;;;;;;4972130;28;20438;-75
2023/08/30 11:02:37;;;;;;;5.55;4.50;;;22.00;99.90;;;;;;4973488;28;20041;-76
2023/08/30 11:05:05;;;;;;;4.88;3.75;;;21.90;99.90;;;;;;4973375;28;20019;-77
2023/08/30 11:07:31;;;;;;;4.05;3.63;;;22.00;99.90;;;;;;4970391;28;20070;-76
2023/08/30 11:09:57;;;;;;;4.28;3.88;;;22.10;99.90;;;;;;4965165;28;20027;-76
2023/08/30 11:12:22;;;;;;;3.70;3.38;;;22.20;99.90;;;;;;4967191;28;20022;-76
2023/08/30 11:14:49;;;;;;;3.25;2.90;;;22.30;99.90;;;;;;4969668;28;20737;-76
2023/08/30 11:17:18;;;;;;;3.75;3.25;;;22.50;99.90;;;;;;4965455;28;20144;-76
2023/08/30 11:19:44;;;;;;;2.90;2.70;;;22.70;99.90;;;;;;4968130;28;20066;-76
2023/08/30 11:22:12;;;;;;;2.35;2.15;;;22.80;99.90;;;;;;4971650;28;20022;-75
2023/08/30 11:24:38;;;;;;;3.75;2.60;;;22.90;99.90;;;;;;4965979;28;20030;-76
2023/08/30 11:27:04;;;;;;;3.50;2.85;;;23.00;99.90;;;;;;4965494;28;20492;-75
2023/08/30 11:29:29;;;;;;;2.75;2.53;;;22.90;99.90;;;;;;4967551;28;20070;-75
2023/08/30 11:31:55;;;;;;;2.58;2.38;;;23.00;99.90;;;;;;4969907;28;20031;-76
2023/08/30 11:34:22;;;;;;;3.83;2.67;;;23.10;99.90;;;;;;4968988;28;20104;-75
2023/08/30 11:36:49;;;;;;;2.92;2.60;;;23.10;99.90;;;;;;4970790;28;20045;-75
2023/08/30 11:39:19;;;;;;;2.50;2.30;;;23.10;99.90;;;;;;4966540;28;20206;-75
2023/08/30 11:41:45;;;;;;;2.40;2.17;;;23.10;99.90;;;;;;4973968;28;20027;-76
2023/08/30 11:44:10;;;;;;;2.33;2.10;;;23.10;99.90;;;;;;4970270;28;20092;-74
2023/08/30 11:46:36;;;;;;;2.30;2.10;;;22.90;99.90;;;;;;4956634;28;20026;-75
2023/08/30 11:49:03;;;;;;;2.88;2.20;;;22.80;99.90;;;;;;4962850;28;20045;-76
2023/08/30 11:51:29;;;;;;;2.28;2.05;;;22.70;99.90;;;;;;4971332;28;20042;-76
2023/08/30 11:53:56;;;;;;;2.10;1.90;;;22.60;99.90;;;;;;4964975;28;20067;-75
2023/08/30 11:56:23;;;;;;;2.83;1.95;;;22.60;99.90;;;;;;4971809;28;20037;-75
2023/08/30 11:58:49;;;;;;;2.20;2.00;;;22.60;99.90;;;;;;4968350;28;20069;-75
2023/08/30 12:01:15;;;;;;;3.20;1.85;;;22.60;99.90;;;;;;4958263;28;20453;-75
2023/08/30 12:03:41;;;;;;;1.70;1.60;;;22.60;99.90;;;;;;4968962;28;20062;-75
2023/08/30 12:06:14;;;;;;;2.55;1.80;;;22.60;99.90;;;;;;4956727;28;20031;-76
2023/08/30 12:08:40;;;;;;;1.83;1.50;;;22.70;99.90;;;;;;4967522;28;20058;-76
2023/08/30 12:11:19;;;;;;;2.13;1.80;;;22.90;99.90;;;;;;4955251;28;20154;-76
2023/08/30 12:13:45;;;;;;;1.60;1.48;;;23.00;99.90;;;;;;4958398;28;20077;-75
2023/08/30 12:16:17;;;;;;;2.65;1.55;;;23.00;99.90;;;;;;4970065;28;20105;-77
2023/08/30 12:18:43;;;;;;;2.15;1.95;;;22.90;99.90;;;;;;4974479;28;20351;-77
2023/08/30 12:21:09;;;;;;;2.08;1.60;;;22.90;99.90;;;;;;4968918;28;20080;-66
2023/08/30 12:23:35;;;;;;;1.88;1.65;;;22.70;99.90;;;;;;4960095;28;21633;-66
2023/08/30 12:26:03;;;;;;;1.98;1.48;;;22.60;99.90;;;;;;4970430;28;21469;-67
2023/08/30 12:28:30;;;;;;;1.60;1.50;;;22.60;99.90;;;;;;4968343;28;20125;-67
2023/08/30 12:30:57;;;;;;;1.55;1.45;;;22.50;99.90;;;;;;4970936;28;20032;-74
2023/08/30 12:33:25;;;;;;;2.83;1.45;;;22.30;99.90;;;;;;4970504;28;20098;-73
2023/08/30 12:35:54;;;;;;;1.50;1.40;;;22.20;99.90;;;;;;4964936;28;20039;-74
2023/08/30 12:38:21;;;;;;;1.52;1.42;;;22.20;99.90;;;;;;4955952;28;20754;-70
2023/08/30 12:40:48;;;;;;;1.67;1.50;;;22.30;99.90;;;;;;4974130;28;20426;-70
2023/08/30 12:43:15;;;;;;;2.72;1.63;;;22.20;99.90;;;;;;4971373;28;20041;-70
2023/08/30 12:45:42;;;;;;;1.30;1.20;;;22.30;99.90;;;;;;4975961;28;20030;-69